^^

Nearby METAR Reports

 

KBJC - Broomfield/Jeffc, Colorado, USA
Distance from station: ESE 4mi, 6km
Updated: 09/28/2020 2:50 pm
Few Clouds
Few Clouds
 Wind from NNE
Wind: NNE 6 mph , 9 km/h
Temperature: 61°F , 16°C
Dew Point: 16°F , -9°C
Humidity: 17%
Barometer: 1027.8 hPa
Clouds: Few Clouds
Visibility: 10 miles , 16 km
Cloud details: Few Clouds 20000 ft
2020/09/28 20:50 KBJC 282050Z 02005KT 10SM FEW200 16/M09 A3035
KBDU - Boulder Muni, Colorado, USA
Distance from station: NNW 8mi, 13km
Updated: 09/28/2020 3:12 pm
Clear
Clear
 Wind from calm
Wind: Calm
Temperature: 61°F , 16°C
Dew Point: 18°F , -8°C
Humidity: 19%
Barometer: 1026.8 hPa
Clouds: Clear
Visibility: 10 miles , 16 km
2020/09/28 21:12 KBDU 282112Z AUTO 00000KT 10SM CLR 16/M08 A3032 RMK AO2
 
KEIK - Erie Muni, Colorado, USA
Distance from station: NE 8mi, 14km
Updated: 09/28/2020 3:15 pm
Clear
Clear
 Wind from N
Wind: N 3 mph , 6 km/h
Temperature: 63°F , 17°C
Dew Point: 14°F , -10°C
Humidity: 15%
Barometer: 1026.8 hPa
Clouds: Clear
Visibility: 10 miles , 16 km
2020/09/28 21:15 KEIK 282115Z AUTO 01003KT 10SM CLR 17/M10 A3032 RMK AO2 T01711103
KLMO - Longmont/Vbrand, Colorado, USA
Distance from station: N 17mi, 27km
Updated: 09/28/2020 3:15 pm
Clear
Clear
 Wind from NNE
Wind: NNE 5 mph , 7 km/h
Temperature: 66°F , 19°C
Dew Point: 18°F , -8°C
Humidity: 15%
Barometer: 1027.1 hPa
Clouds: Clear
Visibility: 10 miles , 16 km
2020/09/28 21:15 KLMO 282115Z AUTO 02004KT 10SM CLR 19/M08 A3033 RMK AO2 T01851083
 
KBKF - Buckley Angb/Den, Colorado, USA
Distance from station: ESE 26mi, 42km
Updated: 09/28/2020 2:58 pm
Few Clouds
Few Clouds
 Wind from NNW
Wind: NNW 8 mph , 13 km/h
Temperature: 59°F , 15°C
Dew Point: 16°F , -9°C
Humidity: 18%
Barometer: 1027.8 hPa
Clouds: Few Clouds
Visibility: 10 miles , 16 km
Cloud details: Few Clouds 10000 ft
Few Clouds 22000 ft
2020/09/28 20:58 KBKF 282058Z 34007KT 10SM FEW100 FEW220 15/M09 A3035 RMK AO2A SLP246 T01481086 57023
KDEN - Denver (dia), Colorado, USA
Distance from station: E 27mi, 44km
Updated: 09/28/2020 2:53 pm
Few Clouds
Few Clouds
 Wind from N
Wind: N 14 mph , 22 km/h, Gust: 22 mph , 35 km/h
Temperature: 61°F , 16°C
Dew Point: 16°F , -9°C
Humidity: 17%
Barometer: 1027.4 hPa
Clouds: Few Clouds
Visibility: 10 miles , 16 km
Cloud details: Few Clouds 10000 ft
Few Clouds 22000 ft
2020/09/28 20:53 KDEN 282053Z 35012G19KT 10SM FEW100 FEW220 16/M09 A3034 RMK AO2 SLP242 T01561089 58025
 
KAPA - Denver/Arapahoe, Colorado, USA
Distance from station: SE 30mi, 48km
Updated: 09/28/2020 2:53 pm
Few Clouds
Few Clouds
 Wind from W
Wind: W 5 mph , 7 km/h
Temperature: 55°F , 13°C
Dew Point: 18°F , -8°C
Humidity: 23%
Barometer: 1028.1 hPa
Clouds: Few Clouds
Visibility: 10 miles , 16 km
Cloud details: Few Clouds 22000 ft
2020/09/28 20:53 KAPA 282053Z 28004KT 10SM FEW220 13/M08 A3036 RMK AO2 SLP264 T01331078 56023
K0CO - Berthoud Pass, Colorado, USA
Distance from station: WSW 33mi, 54km
Updated: 09/28/2020 3:15 pm
Clear
Clear
 Wind from NNW
Wind: NNW 12 mph , 19 km/h, Gust: 23 mph , 37 km/h
Temperature: 30°F , -1°C
Wind Chill: 20°F , -7°C
Dew Point: 12°F , -11°C
Humidity: 47%
Barometer: 1033.9 hPa
Clouds: Clear
Visibility: 10 miles , 16 km
2020/09/28 21:15 K0CO 282115Z AUTO 33010G20KT 241V081 10SM CLR M01/M11 A3053 RMK AO2 PWINO
 
KFTG - Denver F. Range, Colorado, USA
Distance from station: ESE 34mi, 54km
Updated: 01/29/2020 9:55 pm
NOT Current
Overcast
Overcast
 Wind from W
Wind: W 7 mph , 11 km/h
Temperature: 30°F , -1°C
Wind Chill: 23°F , -5°C
Dew Point: 28°F , -2°C
Humidity: 93%
Barometer: 1017.9 hPa
Clouds: Overcast
Visibility: 10 miles , 16 km
Cloud details: Partly cloudy 1300 ft
Mostly cloudy 2300 ft
Overcast 6000 ft
2020/01/30 04:55 KFTG 300455Z AUTO 26006KT 10SM SCT013 BKN023 OVC060 M01/M02 A3006 RMK AO2 T10111023
KFNL - Ft Collins/Loveland, Colorado, USA
Distance from station: N 37mi, 59km
Updated: 09/28/2020 2:56 pm
Clear
Clear
 Wind from N
Wind: N 17 mph , 28 km/h, Gust: 24 mph , 39 km/h
Temperature: 64°F , 18°C
Dew Point: 14°F , -10°C
Humidity: 14%
Barometer: 1026.1 hPa
Clouds: Clear
Visibility: 10 miles , 16 km
2020/09/28 20:56 KFNL 282056Z 01015G21KT 10SM CLR 18/M10 A3030 RMK AO2 SLP233 T01831100 58032
 
KCYS - Cheyenne, Wyoming, USA
Distance from station: NNE 95mi, 153km
Updated: 09/28/2020 2:53 pm
Clear
Clear
 Wind from NW
Wind: NW 17 mph , 28 km/h, Gust: 29 mph , 46 km/h
Temperature: 57°F , 14°C
Dew Point: 12°F , -11°C
Humidity: 17%
Barometer: 1027.1 hPa
Clouds: Clear
Visibility: 10 miles , 16 km
2020/09/28 20:53 KCYS 282053Z 32015G25KT 10SM CLR 14/M11 A3033 RMK AO2 PK WND 33027/2039 SLP249 T01441111 58023
KCPR - Casper, Wyoming, USA
Distance from station: NNW 272mi, 438km
Updated: 09/28/2020 2:53 pm
Clear
Clear
 Wind from W
Wind: W 18 mph , 30 km/h, Gust: 35 mph , 56 km/h
Temperature: 61°F , 16°C
Dew Point: 16°F , -9°C
Humidity: 17%
Barometer: 1027.1 hPa
Clouds: Clear
Visibility: 10 miles , 16 km
2020/09/28 20:53 KCPR 282053Z 27016G30KT 10SM CLR 16/M09 A3033 RMK AO2 PK WND 27030/2049 SLP254 T01611089 58025
 
KGNB - Granby/Grand Co, Colorado, USA
Distance from station: WNW 42mi, 67km
Updated: 09/28/2020 3:12 pm
Clear
Clear
 Wind from NW
Wind: NW 6 mph , 9 km/h
Temperature: 50°F , 10°C
Wind Chill: 48°F , 9°C
Dew Point: 9°F , -13°C
Humidity: 19%
Barometer: 1030.5 hPa
Clouds: Clear
Visibility: 10 miles , 16 km
2020/09/28 21:12 KGNB 282112Z AUTO 31005KT 10SM CLR 10/M13 A3043 RMK AO2 T01041132
KGXY - Greeley/Weld, Colorado, USA
Distance from station: NE 44mi, 71km
Updated: 09/28/2020 2:56 pm
Clear
Clear
 Wind from NNW
Wind: NNW 17 mph , 28 km/h, Gust: 24 mph , 39 km/h
Temperature: 64°F , 18°C
Dew Point: 16°F , -9°C
Humidity: 15%
Barometer: 1026.4 hPa
Clouds: Clear
Visibility: 10 miles , 16 km
2020/09/28 20:56 KGXY 282056Z AUTO 33015G21KT 10SM CLR 18/M09 A3031 RMK AO2 SLP260 T01781094 58030
 
KMNH - Monument/Elbert, Colorado, USA
Distance from station: SSE 56mi, 90km
Updated: 09/28/2020 3:15 pm
Clear
Clear
 Wind from NNW
Wind: NNW 14 mph , 22 km/h
Temperature: 50°F , 10°C
Wind Chill: 45°F , 7°C
Dew Point: 18°F , -8°C
Humidity: 28%
Barometer: 1029.1 hPa
Clouds: Clear
Visibility: 10 miles , 16 km
2020/09/28 21:15 KMNH 282115Z AUTO 34012KT 10SM CLR 10/M08 A3039 RMK AO2